sensor_id;sensor_type;location;lat;lon;timestamp;temperature;humidity
83102;SHT31;72973;51.784;4.660;2024-01-10T00:00:33;-2.26;54.88
83102;SHT31;72973;51.784;4.660;2024-01-10T00:03:00;-2.23;54.41
83102;SHT31;72973;51.784;4.660;2024-01-10T00:05:26;-2.29;54.75
83102;SHT31;72973;51.784;4.660;2024-01-10T00:07:52;-2.22;54.61
83102;SHT31;72973;51.784;4.660;2024-01-10T00:10:19;-2.29;54.53
83102;SHT31;72973;51.784;4.660;2024-01-10T00:12:45;-2.25;54.69
83102;SHT31;72973;51.784;4.660;2024-01-10T00:15:12;-2.28;54.56
83102;SHT31;72973;51.784;4.660;2024-01-10T00:17:40;-2.29;54.88
83102;SHT31;72973;51.784;4.660;2024-01-10T00:20:07;-2.32;54.74
83102;SHT31;72973;51.784;4.660;2024-01-10T00:22:34;-2.32;55.44
83102;SHT31;72973;51.784;4.660;2024-01-10T00:25:00;-2.37;55.40
83102;SHT31;72973;51.784;4.660;2024-01-10T00:27:26;-2.35;55.10
83102;SHT31;72973;51.784;4.660;2024-01-10T00:29:53;-2.36;55.33
83102;SHT31;72973;51.784;4.660;2024-01-10T00:32:21;-2.35;55.70
83102;SHT31;72973;51.784;4.660;2024-01-10T00:34:48;-2.37;55.90
83102;SHT31;72973;51.784;4.660;2024-01-10T00:37:14;-2.43;55.80
83102;SHT31;72973;51.784;4.660;2024-01-10T00:39:40;-2.43;56.07
83102;SHT31;72973;51.784;4.660;2024-01-10T00:42:07;-2.43;56.27
83102;SHT31;72973;51.784;4.660;2024-01-10T00:44:33;-2.42;56.33
83102;SHT31;72973;51.784;4.660;2024-01-10T00:47:00;-2.37;56.48
83102;SHT31;72973;51.784;4.660;2024-01-10T00:49:26;-2.43;56.86
83102;SHT31;72973;51.784;4.660;2024-01-10T00:51:52;-2.46;56.71
83102;SHT31;72973;51.784;4.660;2024-01-10T00:54:19;-2.43;56.73
83102;SHT31;72973;51.784;4.660;2024-01-10T00:56:45;-2.40;57.01
83102;SHT31;72973;51.784;4.660;2024-01-10T00:59:12;-2.40;56.65
83102;SHT31;72973;51.784;4.660;2024-01-10T01:01:38;-2.47;57.49
83102;SHT31;72973;51.784;4.660;2024-01-10T01:04:04;-2.52;57.37
83102;SHT31;72973;51.784;4.660;2024-01-10T01:06:31;-2.47;57.16
83102;SHT31;72973;51.784;4.660;2024-01-10T01:08:57;-2.53;57.57
83102;SHT31;72973;51.784;4.660;2024-01-10T01:11:24;-2.53;57.90
83102;SHT31;72973;51.784;4.660;2024-01-10T01:13:51;-2.56;58.37
83102;SHT31;72973;51.784;4.660;2024-01-10T01:16:17;-2.57;58.11
83102;SHT31;72973;51.784;4.660;2024-01-10T01:18:44;-2.58;58.40
83102;SHT31;72973;51.784;4.660;2024-01-10T01:21:11;-2.61;58.40
83102;SHT31;72973;51.784;4.660;2024-01-10T01:23:38;-2.60;58.54
83102;SHT31;72973;51.784;4.660;2024-01-10T01:26:04;-2.57;58.22
83102;SHT31;72973;51.784;4.660;2024-01-10T01:28:30;-2.60;58.38
83102;SHT31;72973;51.784;4.660;2024-01-10T01:30:58;-2.56;58.89
83102;SHT31;72973;51.784;4.660;2024-01-10T01:33:24;-2.56;58.82
83102;SHT31;72973;51.784;4.660;2024-01-10T01:35:50;-2.54;58.88
83102;SHT31;72973;51.784;4.660;2024-01-10T01:38:17;-2.60;58.80
83102;SHT31;72973;51.784;4.660;2024-01-10T01:40:43;-2.58;59.19
83102;SHT31;72973;51.784;4.660;2024-01-10T01:43:20;-2.60;59.21
83102;SHT31;72973;51.784;4.660;2024-01-10T01:45:51;-2.63;59.15
83102;SHT31;72973;51.784;4.660;2024-01-10T01:48:19;-2.61;59.62
83102;SHT31;72973;51.784;4.660;2024-01-10T01:50:50;-2.68;59.89
83102;SHT31;72973;51.784;4.660;2024-01-10T01:53:17;-2.65;59.62
83102;SHT31;72973;51.784;4.660;2024-01-10T01:55:44;-2.64;59.62
83102;SHT31;72973;51.784;4.660;2024-01-10T01:58:12;-2.63;59.55
83102;SHT31;72973;51.784;4.660;2024-01-10T02:00:39;-2.65;59.73
83102;SHT31;72973;51.784;4.660;2024-01-10T02:03:07;-2.65;59.95
83102;SHT31;72973;51.784;4.660;2024-01-10T02:05:34;-2.65;59.75
83102;SHT31;72973;51.784;4.660;2024-01-10T02:08:00;-2.64;59.95
83102;SHT31;72973;51.784;4.660;2024-01-10T02:10:27;-2.61;60.18
83102;SHT31;72973;51.784;4.660;2024-01-10T02:12:54;-2.65;59.80
83102;SHT31;72973;51.784;4.660;2024-01-10T02:15:20;-2.61;60.30
83102;SHT31;72973;51.784;4.660;2024-01-10T02:17:47;-2.67;60.73
83102;SHT31;72973;51.784;4.660;2024-01-10T02:20:15;-2.68;60.22
83102;SHT31;72973;51.784;4.660;2024-01-10T02:22:44;-2.70;60.64
83102;SHT31;72973;51.784;4.660;2024-01-10T02:25:12;-2.67;60.92
83102;SHT31;72973;51.784;4.660;2024-01-10T02:27:40;-2.65;60.65
83102;SHT31;72973;51.784;4.660;2024-01-10T02:30:08;-2.71;61.39
83102;SHT31;72973;51.784;4.660;2024-01-10T02:32:35;-2.71;60.82
83102;SHT31;72973;51.784;4.660;2024-01-10T02:35:02;-2.67;61.09
83102;SHT31;72973;51.784;4.660;2024-01-10T02:37:28;-2.68;61.21
83102;SHT31;72973;51.784;4.660;2024-01-10T02:39:54;-2.74;61.50
83102;SHT31;72973;51.784;4.660;2024-01-10T02:42:21;-2.74;61.63
83102;SHT31;72973;51.784;4.660;2024-01-10T02:44:48;-2.80;61.59
83102;SHT31;72973;51.784;4.660;2024-01-10T02:47:14;-2.73;61.62
83102;SHT31;72973;51.784;4.660;2024-01-10T02:49:40;-2.81;62.08
83102;SHT31;72973;51.784;4.660;2024-01-10T02:52:07;-2.77;61.72
83102;SHT31;72973;51.784;4.660;2024-01-10T02:54:33;-2.83;61.81
83102;SHT31;72973;51.784;4.660;2024-01-10T02:56:59;-2.88;62.10
83102;SHT31;72973;51.784;4.660;2024-01-10T02:59:26;-2.88;62.42
83102;SHT31;72973;51.784;4.660;2024-01-10T03:01:52;-2.83;62.17
83102;SHT31;72973;51.784;4.660;2024-01-10T03:04:19;-2.87;62.71
83102;SHT31;72973;51.784;4.660;2024-01-10T03:06:45;-2.92;62.64
83102;SHT31;72973;51.784;4.660;2024-01-10T03:09:11;-2.88;62.47
83102;SHT31;72973;51.784;4.660;2024-01-10T03:11:38;-2.85;62.67
83102;SHT31;72973;51.784;4.660;2024-01-10T03:14:08;-2.85;62.71
83102;SHT31;72973;51.784;4.660;2024-01-10T03:16:35;-2.87;62.38
83102;SHT31;72973;51.784;4.660;2024-01-10T03:19:02;-2.84;62.35
83102;SHT31;72973;51.784;4.660;2024-01-10T03:21:28;-2.87;62.39
83102;SHT31;72973;51.784;4.660;2024-01-10T03:23:56;-2.89;62.36
83102;SHT31;72973;51.784;4.660;2024-01-10T03:26:24;-2.87;62.63
83102;SHT31;72973;51.784;4.660;2024-01-10T03:28:50;-2.87;62.63
83102;SHT31;72973;51.784;4.660;2024-01-10T03:31:17;-2.87;62.82
83102;SHT31;72973;51.784;4.660;2024-01-10T03:33:44;-2.88;62.72
83102;SHT31;72973;51.784;4.660;2024-01-10T03:36:16;-2.95;62.83
83102;SHT31;72973;51.784;4.660;2024-01-10T03:38:44;-2.95;62.91
83102;SHT31;72973;51.784;4.660;2024-01-10T03:41:14;-2.94;62.75
83102;SHT31;72973;51.784;4.660;2024-01-10T03:43:41;-2.91;62.91
83102;SHT31;72973;51.784;4.660;2024-01-10T03:46:08;-2.92;62.65
83102;SHT31;72973;51.784;4.660;2024-01-10T03:48:35;-2.98;62.94
83102;SHT31;72973;51.784;4.660;2024-01-10T03:51:03;-2.96;63.06
83102;SHT31;72973;51.784;4.660;2024-01-10T03:53:30;-3.02;63.15
83102;SHT31;72973;51.784;4.660;2024-01-10T03:55:56;-3.01;63.07
83102;SHT31;72973;51.784;4.660;2024-01-10T03:58:23;-3.05;63.24
83102;SHT31;72973;51.784;4.660;2024-01-10T04:00:50;-3.05;63.20
83102;SHT31;72973;51.784;4.660;2024-01-10T04:03:16;-3.05;63.54
83102;SHT31;72973;51.784;4.660;2024-01-10T04:05:42;-3.05;63.59
83102;SHT31;72973;51.784;4.660;2024-01-10T04:08:09;-3.02;63.31
83102;SHT31;72973;51.784;4.660;2024-01-10T04:10:35;-3.11;63.69
83102;SHT31;72973;51.784;4.660;2024-01-10T04:13:01;-3.11;63.67
83102;SHT31;72973;51.784;4.660;2024-01-10T04:15:28;-3.12;63.82
83102;SHT31;72973;51.784;4.660;2024-01-10T04:17:54;-3.12;63.96
83102;SHT31;72973;51.784;4.660;2024-01-10T04:20:20;-3.11;63.78
83102;SHT31;72973;51.784;4.660;2024-01-10T04:22:47;-3.12;64.01
83102;SHT31;72973;51.784;4.660;2024-01-10T04:25:13;-3.12;63.91
83102;SHT31;72973;51.784;4.660;2024-01-10T04:27:40;-3.15;64.32
83102;SHT31;72973;51.784;4.660;2024-01-10T04:30:06;-3.16;64.19
83102;SHT31;72973;51.784;4.660;2024-01-10T04:32:33;-3.16;64.35
83102;SHT31;72973;51.784;4.660;2024-01-10T04:34:59;-3.19;64.46
83102;SHT31;72973;51.784;4.660;2024-01-10T04:37:26;-3.24;64.78
83102;SHT31;72973;51.784;4.660;2024-01-10T04:39:52;-3.19;64.80
83102;SHT31;72973;51.784;4.660;2024-01-10T04:42:19;-3.19;64.62
83102;SHT31;72973;51.784;4.660;2024-01-10T04:44:46;-3.15;64.67
83102;SHT31;72973;51.784;4.660;2024-01-10T04:47:12;-3.15;64.65
83102;SHT31;72973;51.784;4.660;2024-01-10T04:49:38;-3.13;64.53
83102;SHT31;72973;51.784;4.660;2024-01-10T04:52:05;-3.23;64.66
83102;SHT31;72973;51.784;4.660;2024-01-10T04:54:31;-3.26;64.69
83102;SHT31;72973;51.784;4.660;2024-01-10T04:56:58;-3.28;64.90
83102;SHT31;72973;51.784;4.660;2024-01-10T04:59:24;-3.23;64.82
83102;SHT31;72973;51.784;4.660;2024-01-10T05:01:51;-3.23;65.03
83102;SHT31;72973;51.784;4.660;2024-01-10T05:04:17;-3.22;65.20
83102;SHT31;72973;51.784;4.660;2024-01-10T05:06:43;-3.22;65.22
83102;SHT31;72973;51.784;4.660;2024-01-10T05:09:10;-3.26;65.30
83102;SHT31;72973;51.784;4.660;2024-01-10T05:11:37;-3.26;65.56
83102;SHT31;72973;51.784;4.660;2024-01-10T05:14:03;-3.26;65.66
83102;SHT31;72973;51.784;4.660;2024-01-10T05:16:30;-3.29;65.82
83102;SHT31;72973;51.784;4.660;2024-01-10T05:19:00;-3.24;65.70
83102;SHT31;72973;51.784;4.660;2024-01-10T05:21:31;-3.24;65.67
83102;SHT31;72973;51.784;4.660;2024-01-10T05:23:57;-3.31;65.86
83102;SHT31;72973;51.784;4.660;2024-01-10T05:26:23;-3.32;66.07
83102;SHT31;72973;51.784;4.660;2024-01-10T05:28:50;-3.33;66.14
83102;SHT31;72973;51.784;4.660;2024-01-10T05:31:16;-3.36;65.93
83102;SHT31;72973;51.784;4.660;2024-01-10T05:33:43;-3.38;66.36
83102;SHT31;72973;51.784;4.660;2024-01-10T05:36:10;-3.36;66.23
83102;SHT31;72973;51.784;4.660;2024-01-10T05:38:39;-3.36;66.24
83102;SHT31;72973;51.784;4.660;2024-01-10T05:41:06;-3.36;66.18
83102;SHT31;72973;51.784;4.660;2024-01-10T05:43:32;-3.42;66.31
83102;SHT31;72973;51.784;4.660;2024-01-10T05:45:59;-3.36;66.18
83102;SHT31;72973;51.784;4.660;2024-01-10T05:48:26;-3.36;66.23
83102;SHT31;72973;51.784;4.660;2024-01-10T05:50:52;-3.35;66.40
83102;SHT31;72973;51.784;4.660;2024-01-10T05:53:18;-3.42;66.60
83102;SHT31;72973;51.784;4.660;2024-01-10T05:55:45;-3.42;66.58
83102;SHT31;72973;51.784;4.660;2024-01-10T05:58:11;-3.40;66.84
83102;SHT31;72973;51.784;4.660;2024-01-10T06:00:38;-3.43;66.83
83102;SHT31;72973;51.784;4.660;2024-01-10T06:03:04;-3.39;66.83
83102;SHT31;72973;51.784;4.660;2024-01-10T06:05:31;-3.46;66.89
83102;SHT31;72973;51.784;4.660;2024-01-10T06:07:57;-3.39;66.80
83102;SHT31;72973;51.784;4.660;2024-01-10T06:10:24;-3.42;66.99
83102;SHT31;72973;51.784;4.660;2024-01-10T06:12:50;-3.51;67.15
83102;SHT31;72973;51.784;4.660;2024-01-10T06:15:17;-3.43;67.05
83102;SHT31;72973;51.784;4.660;2024-01-10T06:17:43;-3.43;66.90
83102;SHT31;72973;51.784;4.660;2024-01-10T06:20:09;-3.44;66.90
83102;SHT31;72973;51.784;4.660;2024-01-10T06:22:36;-3.42;66.89
83102;SHT31;72973;51.784;4.660;2024-01-10T06:25:02;-3.42;66.82
83102;SHT31;72973;51.784;4.660;2024-01-10T06:27:30;-3.46;66.85
83102;SHT31;72973;51.784;4.660;2024-01-10T06:29:56;-3.38;66.69
83102;SHT31;72973;51.784;4.660;2024-01-10T06:32:22;-3.42;66.84
83102;SHT31;72973;51.784;4.660;2024-01-10T06:34:49;-3.44;66.74
83102;SHT31;72973;51.784;4.660;2024-01-10T06:37:15;-3.44;66.85
83102;SHT31;72973;51.784;4.660;2024-01-10T06:39:42;-3.46;66.96
83102;SHT31;72973;51.784;4.660;2024-01-10T06:42:10;-3.49;66.95
83102;SHT31;72973;51.784;4.660;2024-01-10T06:44:38;-3.47;67.05
83102;SHT31;72973;51.784;4.660;2024-01-10T06:47:04;-3.46;66.77
83102;SHT31;72973;51.784;4.660;2024-01-10T06:49:30;-3.49;66.74
83102;SHT31;72973;51.784;4.660;2024-01-10T06:51:57;-3.49;66.95
83102;SHT31;72973;51.784;4.660;2024-01-10T06:54:23;-3.44;66.45
83102;SHT31;72973;51.784;4.660;2024-01-10T06:56:49;-3.46;66.72
83102;SHT31;72973;51.784;4.660;2024-01-10T06:59:16;-3.49;66.68
83102;SHT31;72973;51.784;4.660;2024-01-10T07:01:42;-3.56;66.98
83102;SHT31;72973;51.784;4.660;2024-01-10T07:04:08;-3.54;67.01
83102;SHT31;72973;51.784;4.660;2024-01-10T07:06:35;-3.56;67.05
83102;SHT31;72973;51.784;4.660;2024-01-10T07:09:01;-3.60;67.42
83102;SHT31;72973;51.784;4.660;2024-01-10T07:11:27;-3.61;66.97
83102;SHT31;72973;51.784;4.660;2024-01-10T07:13:55;-3.61;67.21
83102;SHT31;72973;51.784;4.660;2024-01-10T07:16:22;-3.63;67.58
83102;SHT31;72973;51.784;4.660;2024-01-10T07:18:48;-3.70;67.45
83102;SHT31;72973;51.784;4.660;2024-01-10T07:21:17;-3.64;67.41
83102;SHT31;72973;51.784;4.660;2024-01-10T07:23:43;-3.64;67.54
83102;SHT31;72973;51.784;4.660;2024-01-10T07:26:13;-3.64;67.35
83102;SHT31;72973;51.784;4.660;2024-01-10T07:28:39;-3.59;67.21
83102;SHT31;72973;51.784;4.660;2024-01-10T07:31:08;-3.61;67.30
83102;SHT31;72973;51.784;4.660;2024-01-10T07:33:34;-3.60;67.32
83102;SHT31;72973;51.784;4.660;2024-01-10T07:36:00;-3.68;67.37
83102;SHT31;72973;51.784;4.660;2024-01-10T07:38:27;-3.66;67.38
83102;SHT31;72973;51.784;4.660;2024-01-10T07:40:53;-3.66;67.65
83102;SHT31;72973;51.784;4.660;2024-01-10T07:43:20;-3.63;67.29
83102;SHT31;72973;51.784;4.660;2024-01-10T07:45:46;-3.56;67.16
83102;SHT31;72973;51.784;4.660;2024-01-10T07:48:13;-3.59;66.76
83102;SHT31;72973;51.784;4.660;2024-01-10T07:50:39;-3.53;66.69
83102;SHT31;72973;51.784;4.660;2024-01-10T07:53:06;-3.57;66.61
83102;SHT31;72973;51.784;4.660;2024-01-10T07:55:33;-3.53;66.73
83102;SHT31;72973;51.784;4.660;2024-01-10T07:58:00;-3.47;66.46
83102;SHT31;72973;51.784;4.660;2024-01-10T08:00:27;-3.51;66.86
83102;SHT31;72973;51.784;4.660;2024-01-10T08:02:54;-3.54;66.61
83102;SHT31;72973;51.784;4.660;2024-01-10T08:05:20;-3.54;66.74
83102;SHT31;72973;51.784;4.660;2024-01-10T08:07:47;-3.59;66.98
83102;SHT31;72973;51.784;4.660;2024-01-10T08:10:14;-3.56;66.74
83102;SHT31;72973;51.784;4.660;2024-01-10T08:12:41;-3.56;67.01
83102;SHT31;72973;51.784;4.660;2024-01-10T08:15:08;-3.60;66.78
83102;SHT31;72973;51.784;4.660;2024-01-10T08:17:39;-3.54;66.58
83102;SHT31;72973;51.784;4.660;2024-01-10T08:20:07;-3.53;66.36
83102;SHT31;72973;51.784;4.660;2024-01-10T08:22:34;-3.56;66.55
83102;SHT31;72973;51.784;4.660;2024-01-10T08:25:00;-3.53;66.28
83102;SHT31;72973;51.784;4.660;2024-01-10T08:27:27;-3.54;66.37
83102;SHT31;72973;51.784;4.660;2024-01-10T08:29:53;-3.51;66.23
83102;SHT31;72973;51.784;4.660;2024-01-10T08:32:19;-3.50;66.04
83102;SHT31;72973;51.784;4.660;2024-01-10T08:34:48;-3.42;66.37
83102;SHT31;72973;51.784;4.660;2024-01-10T08:37:15;-3.40;66.10
83102;SHT31;72973;51.784;4.660;2024-01-10T08:39:43;-3.33;65.86
83102;SHT31;72973;51.784;4.660;2024-01-10T08:42:10;-3.35;66.00
83102;SHT31;72973;51.784;4.660;2024-01-10T08:44:38;-3.33;65.50
83102;SHT31;72973;51.784;4.660;2024-01-10T08:47:04;-3.32;65.76
83102;SHT31;72973;51.784;4.660;2024-01-10T08:49:30;-3.24;65.54
83102;SHT31;72973;51.784;4.660;2024-01-10T08:51:57;-3.19;65.77
83102;SHT31;72973;51.784;4.660;2024-01-10T08:54:24;-3.15;65.21
83102;SHT31;72973;51.784;4.660;2024-01-10T08:56:51;-3.12;64.93
83102;SHT31;72973;51.784;4.660;2024-01-10T08:59:18;-3.06;65.52
83102;SHT31;72973;51.784;4.660;2024-01-10T09:01:45;-3.04;65.31
83102;SHT31;72973;51.784;4.660;2024-01-10T09:04:12;-2.95;64.91
83102;SHT31;72973;51.784;4.660;2024-01-10T09:06:38;-2.87;64.74
83102;SHT31;72973;51.784;4.660;2024-01-10T09:09:05;-2.84;64.83
83102;SHT31;72973;51.784;4.660;2024-01-10T09:11:33;-2.78;64.56
83102;SHT31;72973;51.784;4.660;2024-01-10T09:13:59;-2.73;63.90
83102;SHT31;72973;51.784;4.660;2024-01-10T09:16:26;-2.74;63.42
83102;SHT31;72973;51.784;4.660;2024-01-10T09:18:53;-2.65;63.74
83102;SHT31;72973;51.784;4.660;2024-01-10T09:21:25;-2.58;63.44
83102;SHT31;72973;51.784;4.660;2024-01-10T09:23:51;-2.49;63.31
83102;SHT31;72973;51.784;4.660;2024-01-10T09:26:19;-2.50;62.52
83102;SHT31;72973;51.784;4.660;2024-01-10T09:28:45;-2.44;62.69
83102;SHT31;72973;51.784;4.660;2024-01-10T09:31:12;-2.42;62.83
83102;SHT31;72973;51.784;4.660;2024-01-10T09:33:38;-2.30;62.32
83102;SHT31;72973;51.784;4.660;2024-01-10T09:36:05;-2.26;61.93
83102;SHT31;72973;51.784;4.660;2024-01-10T09:38:35;-2.28;62.04
83102;SHT31;72973;51.784;4.660;2024-01-10T09:41:04;-2.16;62.27
83102;SHT31;72973;51.784;4.660;2024-01-10T09:43:40;-2.09;61.62
83102;SHT31;72973;51.784;4.660;2024-01-10T09:46:07;-2.06;61.30
83102;SHT31;72973;51.784;4.660;2024-01-10T09:48:34;-2.05;61.15
83102;SHT31;72973;51.784;4.660;2024-01-10T09:51:01;-2.02;61.06
83102;SHT31;72973;51.784;4.660;2024-01-10T09:53:27;-2.05;61.03
83102;SHT31;72973;51.784;4.660;2024-01-10T09:55:56;-2.02;60.98
83102;SHT31;72973;51.784;4.660;2024-01-10T09:58:26;-2.01;60.82
83102;SHT31;72973;51.784;4.660;2024-01-10T10:00:53;-1.92;61.17
83102;SHT31;72973;51.784;4.660;2024-01-10T10:03:21;-1.84;61.09
83102;SHT31;72973;51.784;4.660;2024-01-10T10:05:47;-1.74;60.57
83102;SHT31;72973;51.784;4.660;2024-01-10T10:08:14;-1.71;60.83
83102;SHT31;72973;51.784;4.660;2024-01-10T10:10:44;-1.70;60.37
83102;SHT31;72973;51.784;4.660;2024-01-10T10:13:24;-1.61;59.86
83102;SHT31;72973;51.784;4.660;2024-01-10T10:16:02;-1.53;59.82
83102;SHT31;72973;51.784;4.660;2024-01-10T10:18:30;-1.53;59.51
83102;SHT31;72973;51.784;4.660;2024-01-10T10:21:10;-1.46;59.44
83102;SHT31;72973;51.784;4.660;2024-01-10T10:23:39;-1.39;59.40
83102;SHT31;72973;51.784;4.660;2024-01-10T10:26:13;-1.35;58.86
83102;SHT31;72973;51.784;4.660;2024-01-10T10:28:46;-1.29;59.11
83102;SHT31;72973;51.784;4.660;2024-01-10T10:31:14;-1.23;59.03
83102;SHT31;72973;51.784;4.660;2024-01-10T10:33:44;-1.20;58.13
83102;SHT31;72973;51.784;4.660;2024-01-10T10:36:13;-1.09;58.14
83102;SHT31;72973;51.784;4.660;2024-01-10T10:38:40;-0.95;57.81
83102;SHT31;72973;51.784;4.660;2024-01-10T10:41:07;-0.92;57.04
83102;SHT31;72973;51.784;4.660;2024-01-10T10:43:38;-0.93;56.88
83102;SHT31;72973;51.784;4.660;2024-01-10T10:46:09;-0.99;56.96
83102;SHT31;72973;51.784;4.660;2024-01-10T10:48:39;-0.98;57.02
83102;SHT31;72973;51.784;4.660;2024-01-10T10:51:08;-0.87;56.14
83102;SHT31;72973;51.784;4.660;2024-01-10T10:53:37;-0.81;56.66
83102;SHT31;72973;51.784;4.660;2024-01-10T10:56:06;-0.72;56.78
83102;SHT31;72973;51.784;4.660;2024-01-10T10:58:36;-0.64;56.38
83102;SHT31;72973;51.784;4.660;2024-01-10T11:01:08;-0.61;56.08
83102;SHT31;72973;51.784;4.660;2024-01-10T11:03:37;-0.61;56.61
83102;SHT31;72973;51.784;4.660;2024-01-10T11:06:04;-0.61;56.80
83102;SHT31;72973;51.784;4.660;2024-01-10T11:08:43;-0.54;57.08
83102;SHT31;72973;51.784;4.660;2024-01-10T11:14:43;0.81;53.97
83102;SHT31;72973;51.784;4.660;2024-01-10T11:25:59;2.00;51.09
83102;SHT31;72973;51.784;4.660;2024-01-10T11:28:26;1.80;51.35
83102;SHT31;72973;51.784;4.660;2024-01-10T11:31:01;2.11;50.53
83102;SHT31;72973;51.784;4.660;2024-01-10T11:33:36;1.77;50.48
83102;SHT31;72973;51.784;4.660;2024-01-10T11:36:16;2.00;50.27
83102;SHT31;72973;51.784;4.660;2024-01-10T11:41:23;2.21;49.61
83102;SHT31;72973;51.784;4.660;2024-01-10T11:46:43;1.18;52.82
83102;SHT31;72973;51.784;4.660;2024-01-10T11:49:19;1.34;52.35
83102;SHT31;72973;51.784;4.660;2024-01-10T11:51:50;1.40;52.26
83102;SHT31;72973;51.784;4.660;2024-01-10T11:57:02;1.38;52.01
83102;SHT31;72973;51.784;4.660;2024-01-10T11:59:31;1.00;52.47
83102;SHT31;72973;51.784;4.660;2024-01-10T12:01:58;0.85;53.32
83102;SHT31;72973;51.784;4.660;2024-01-10T12:04:26;0.80;53.56
83102;SHT31;72973;51.784;4.660;2024-01-10T12:06:56;0.85;53.51
83102;SHT31;72973;51.784;4.660;2024-01-10T12:09:24;0.85;53.87
83102;SHT31;72973;51.784;4.660;2024-01-10T12:11:50;0.88;53.84
83102;SHT31;72973;51.784;4.660;2024-01-10T12:14:17;0.84;53.60
83102;SHT31;72973;51.784;4.660;2024-01-10T12:16:44;0.83;52.72
83102;SHT31;72973;51.784;4.660;2024-01-10T12:19:11;0.88;52.60
83102;SHT31;72973;51.784;4.660;2024-01-10T12:21:37;0.88;52.54
83102;SHT31;72973;51.784;4.660;2024-01-10T12:24:05;0.83;52.90
83102;SHT31;72973;51.784;4.660;2024-01-10T12:26:34;0.80;53.21
83102;SHT31;72973;51.784;4.660;2024-01-10T12:29:05;0.88;53.12
83102;SHT31;72973;51.784;4.660;2024-01-10T12:31:32;0.97;52.82
83102;SHT31;72973;51.784;4.660;2024-01-10T12:34:07;1.01;52.63
83102;SHT31;72973;51.784;4.660;2024-01-10T12:36:34;1.07;52.42
83102;SHT31;72973;51.784;4.660;2024-01-10T12:39:02;1.02;51.85
83102;SHT31;72973;51.784;4.660;2024-01-10T12:41:29;1.05;51.62
83102;SHT31;72973;51.784;4.660;2024-01-10T12:43:55;1.04;52.68
83102;SHT31;72973;51.784;4.660;2024-01-10T12:46:23;1.07;52.07
83102;SHT31;72973;51.784;4.660;2024-01-10T12:51:30;1.09;52.15
83102;SHT31;72973;51.784;4.660;2024-01-10T12:53:58;1.11;51.52
83102;SHT31;72973;51.784;4.660;2024-01-10T12:56:27;1.12;50.81
83102;SHT31;72973;51.784;4.660;2024-01-10T12:58:54;1.12;51.23
83102;SHT31;72973;51.784;4.660;2024-01-10T13:01:24;1.17;50.73
83102;SHT31;72973;51.784;4.660;2024-01-10T13:03:51;1.25;51.68
83102;SHT31;72973;51.784;4.660;2024-01-10T13:06:18;1.21;51.60
83102;SHT31;72973;51.784;4.660;2024-01-10T13:08:49;1.22;50.91
83102;SHT31;72973;51.784;4.660;2024-01-10T13:11:16;1.32;49.89
83102;SHT31;72973;51.784;4.660;2024-01-10T13:13:42;1.25;50.44
83102;SHT31;72973;51.784;4.660;2024-01-10T13:16:12;1.31;49.85
83102;SHT31;72973;51.784;4.660;2024-01-10T13:18:41;1.28;50.82
83102;SHT31;72973;51.784;4.660;2024-01-10T13:21:08;1.29;49.72
83102;SHT31;72973;51.784;4.660;2024-01-10T13:23:36;1.35;50.03
83102;SHT31;72973;51.784;4.660;2024-01-10T13:26:04;1.39;49.84
83102;SHT31;72973;51.784;4.660;2024-01-10T13:28:36;1.48;49.38
83102;SHT31;72973;51.784;4.660;2024-01-10T13:31:06;1.46;49.45
83102;SHT31;72973;51.784;4.660;2024-01-10T13:33:35;1.48;49.57
83102;SHT31;72973;51.784;4.660;2024-01-10T13:36:01;1.53;49.74
83102;SHT31;72973;51.784;4.660;2024-01-10T13:38:33;1.55;48.97
83102;SHT31;72973;51.784;4.660;2024-01-10T13:41:04;1.58;48.83
83102;SHT31;72973;51.784;4.660;2024-01-10T13:43:31;1.66;48.70
83102;SHT31;72973;51.784;4.660;2024-01-10T13:46:09;1.62;48.56
83102;SHT31;72973;51.784;4.660;2024-01-10T13:48:49;1.59;48.50
83102;SHT31;72973;51.784;4.660;2024-01-10T13:51:16;1.58;48.54
83102;SHT31;72973;51.784;4.660;2024-01-10T13:53:43;1.56;48.62
83102;SHT31;72973;51.784;4.660;2024-01-10T13:56:10;1.58;48.77
83102;SHT31;72973;51.784;4.660;2024-01-10T13:58:41;1.48;48.67
83102;SHT31;72973;51.784;4.660;2024-01-10T14:01:08;1.52;48.39
83102;SHT31;72973;51.784;4.660;2024-01-10T14:03:35;1.52;48.24
83102;SHT31;72973;51.784;4.660;2024-01-10T14:06:05;1.50;48.16
83102;SHT31;72973;51.784;4.660;2024-01-10T14:08:35;1.60;48.30
83102;SHT31;72973;51.784;4.660;2024-01-10T14:11:09;1.58;48.26
83102;SHT31;72973;51.784;4.660;2024-01-10T14:13:36;1.64;48.46
83102;SHT31;72973;51.784;4.660;2024-01-10T14:16:06;1.63;48.19
83102;SHT31;72973;51.784;4.660;2024-01-10T14:18:35;1.63;47.94
83102;SHT31;72973;51.784;4.660;2024-01-10T14:21:08;1.63;48.03
83102;SHT31;72973;51.784;4.660;2024-01-10T14:23:43;1.64;47.61
83102;SHT31;72973;51.784;4.660;2024-01-10T14:26:16;1.66;48.02
83102;SHT31;72973;51.784;4.660;2024-01-10T14:28:46;1.59;47.99
83102;SHT31;72973;51.784;4.660;2024-01-10T14:31:12;1.62;48.50
83102;SHT31;72973;51.784;4.660;2024-01-10T14:33:40;1.66;48.31
83102;SHT31;72973;51.784;4.660;2024-01-10T14:36:06;1.76;48.62
83102;SHT31;72973;51.784;4.660;2024-01-10T14:38:33;1.76;48.95
83102;SHT31;72973;51.784;4.660;2024-01-10T14:41:00;1.73;49.04
83102;SHT31;72973;51.784;4.660;2024-01-10T14:43:27;1.69;48.76
83102;SHT31;72973;51.784;4.660;2024-01-10T14:45:54;1.67;49.03
83102;SHT31;72973;51.784;4.660;2024-01-10T14:48:20;1.60;49.83
83102;SHT31;72973;51.784;4.660;2024-01-10T14:50:47;1.60;49.65
83102;SHT31;72973;51.784;4.660;2024-01-10T14:53:17;1.60;50.11
83102;SHT31;72973;51.784;4.660;2024-01-10T14:55:49;1.59;50.70
83102;SHT31;72973;51.784;4.660;2024-01-10T14:58:25;1.59;50.79
83102;SHT31;72973;51.784;4.660;2024-01-10T15:00:51;1.48;51.17
83102;SHT31;72973;51.784;4.660;2024-01-10T15:03:18;1.43;51.23
83102;SHT31;72973;51.784;4.660;2024-01-10T15:05:44;1.46;50.82
83102;SHT31;72973;51.784;4.660;2024-01-10T15:08:11;1.45;51.02
83102;SHT31;72973;51.784;4.660;2024-01-10T15:10:40;1.45;51.07
83102;SHT31;72973;51.784;4.660;2024-01-10T15:13:09;1.42;50.86
83102;SHT31;72973;51.784;4.660;2024-01-10T15:15:41;1.38;50.96
83102;SHT31;72973;51.784;4.660;2024-01-10T15:18:08;1.38;51.03
83102;SHT31;72973;51.784;4.660;2024-01-10T15:20:35;1.40;50.89
83102;SHT31;72973;51.784;4.660;2024-01-10T15:23:02;1.35;51.26
83102;SHT31;72973;51.784;4.660;2024-01-10T15:25:28;1.34;50.94
83102;SHT31;72973;51.784;4.660;2024-01-10T15:27:55;1.31;50.30
83102;SHT31;72973;51.784;4.660;2024-01-10T15:30:24;1.35;51.25
83102;SHT31;72973;51.784;4.660;2024-01-10T15:32:51;1.31;51.10
83102;SHT31;72973;51.784;4.660;2024-01-10T15:35:18;1.29;50.85
83102;SHT31;72973;51.784;4.660;2024-01-10T15:37:45;1.28;51.67
83102;SHT31;72973;51.784;4.660;2024-01-10T15:40:11;1.24;51.58
83102;SHT31;72973;51.784;4.660;2024-01-10T15:42:38;1.22;51.65
83102;SHT31;72973;51.784;4.660;2024-01-10T15:45:11;1.20;51.77
83102;SHT31;72973;51.784;4.660;2024-01-10T15:47:38;1.11;51.90
83102;SHT31;72973;51.784;4.660;2024-01-10T15:50:05;1.04;51.71
83102;SHT31;72973;51.784;4.660;2024-01-10T15:52:34;1.04;51.59
83102;SHT31;72973;51.784;4.660;2024-01-10T15:55:01;1.01;51.49
83102;SHT31;72973;51.784;4.660;2024-01-10T15:57:27;1.05;51.67
83102;SHT31;72973;51.784;4.660;2024-01-10T15:59:56;0.98;52.17